sensor_id;sensor_type;location;lat;lon;timestamp;pressure;altitude;pressure_sealevel;temperature;humidity
7668;BME280;3876;42.204;24.686;2023-11-21T00:00:43;99273.63;;;9.00;87.59
7668;BME280;3876;42.204;24.686;2023-11-21T00:03:11;99280.50;;;8.98;87.21
7668;BME280;3876;42.204;24.686;2023-11-21T00:05:40;99278.81;;;8.97;87.66
7668;BME280;3876;42.204;24.686;2023-11-21T00:08:08;99267.75;;;8.95;87.21
7668;BME280;3876;42.204;24.686;2023-11-21T00:10:36;99274.66;;;8.93;87.49
7668;BME280;3876;42.204;24.686;2023-11-21T00:13:04;99262.03;;;8.87;87.94
7668;BME280;3876;42.204;24.686;2023-11-21T00:15:30;99259.44;;;8.88;87.56
7668;BME280;3876;42.204;24.686;2023-11-21T00:17:57;99267.13;;;8.87;87.77
7668;BME280;3876;42.204;24.686;2023-11-21T00:20:24;99261.25;;;8.85;88.06
7668;BME280;3876;42.204;24.686;2023-11-21T00:22:50;99263.88;;;8.82;88.31
7668;BME280;3876;42.204;24.686;2023-11-21T00:25:19;99251.13;;;8.79;88.26
7668;BME280;3876;42.204;24.686;2023-11-21T00:27:45;99254.53;;;8.81;88.26
7668;BME280;3876;42.204;24.686;2023-11-21T00:30:12;99253.69;;;8.79;88.55
7668;BME280;3876;42.204;24.686;2023-11-21T00:32:39;99248.59;;;8.79;88.28
7668;BME280;3876;42.204;24.686;2023-11-21T00:35:06;99241.81;;;8.78;88.30
7668;BME280;3876;42.204;24.686;2023-11-21T00:37:33;99240.91;;;8.79;88.41
7668;BME280;3876;42.204;24.686;2023-11-21T00:40:00;99247.00;;;8.75;88.52
7668;BME280;3876;42.204;24.686;2023-11-21T00:42:31;99250.34;;;8.77;88.60
7668;BME280;3876;42.204;24.686;2023-11-21T00:44:59;99251.19;;;8.77;88.61
7668;BME280;3876;42.204;24.686;2023-11-21T00:47:26;99254.69;;;8.75;87.87
7668;BME280;3876;42.204;24.686;2023-11-21T00:49:52;99245.47;;;8.68;88.15
7668;BME280;3876;42.204;24.686;2023-11-21T00:52:19;99260.16;;;8.60;88.84
7668;BME280;3876;42.204;24.686;2023-11-21T00:54:46;99262.97;;;8.49;89.46
7668;BME280;3876;42.204;24.686;2023-11-21T00:57:13;99257.19;;;8.41;89.73
7668;BME280;3876;42.204;24.686;2023-11-21T00:59:41;99251.25;;;8.40;89.81
7668;BME280;3876;42.204;24.686;2023-11-21T01:02:08;99251.16;;;8.43;89.97
7668;BME280;3876;42.204;24.686;2023-11-21T01:04:36;99252.00;;;8.46;89.10
7668;BME280;3876;42.204;24.686;2023-11-21T01:07:03;99256.19;;;8.47;89.46
7668;BME280;3876;42.204;24.686;2023-11-21T01:09:30;99258.03;;;8.43;89.14
7668;BME280;3876;42.204;24.686;2023-11-21T01:11:57;99265.72;;;8.41;89.39
7668;BME280;3876;42.204;24.686;2023-11-21T01:14:25;99264.91;;;8.39;89.38
7668;BME280;3876;42.204;24.686;2023-11-21T01:16:53;99264.91;;;8.39;89.22
7668;BME280;3876;42.204;24.686;2023-11-21T01:19:20;99254.78;;;8.36;89.50
7668;BME280;3876;42.204;24.686;2023-11-21T01:21:47;99253.09;;;8.35;89.31
7668;BME280;3876;42.204;24.686;2023-11-21T01:24:14;99242.88;;;8.34;89.61
7668;BME280;3876;42.204;24.686;2023-11-21T01:26:41;99252.31;;;8.32;89.90
7668;BME280;3876;42.204;24.686;2023-11-21T01:29:07;99227.88;;;8.20;90.26
7668;BME280;3876;42.204;24.686;2023-11-21T01:31:34;99250.69;;;8.28;89.81
7668;BME280;3876;42.204;24.686;2023-11-21T01:34:02;99242.16;;;8.27;90.28
7668;BME280;3876;42.204;24.686;2023-11-21T01:36:30;99243.91;;;8.27;90.28
7668;BME280;3876;42.204;24.686;2023-11-21T01:38:58;99248.19;;;8.25;90.27
7668;BME280;3876;42.204;24.686;2023-11-21T01:41:25;99246.47;;;8.25;90.40
7668;BME280;3876;42.204;24.686;2023-11-21T01:43:53;99250.72;;;8.26;90.04
7668;BME280;3876;42.204;24.686;2023-11-21T01:46:20;99246.47;;;8.25;90.40
7668;BME280;3876;42.204;24.686;2023-11-21T01:48:48;99245.69;;;8.22;90.16
7668;BME280;3876;42.204;24.686;2023-11-21T01:51:17;99246.63;;;8.19;90.35
7668;BME280;3876;42.204;24.686;2023-11-21T01:53:45;99247.47;;;8.18;90.45
7668;BME280;3876;42.204;24.686;2023-11-21T01:56:12;99249.47;;;8.07;91.38
7668;BME280;3876;42.204;24.686;2023-11-21T01:58:39;99246.97;;;8.04;91.52
7668;BME280;3876;42.204;24.686;2023-11-21T02:01:06;99212.41;;;7.89;92.11
7668;BME280;3876;42.204;24.686;2023-11-21T02:03:34;99232.75;;;7.92;92.18
7668;BME280;3876;42.204;24.686;2023-11-21T02:06:00;99231.91;;;7.93;92.36
7668;BME280;3876;42.204;24.686;2023-11-21T02:08:29;99235.28;;;7.94;91.90
7668;BME280;3876;42.204;24.686;2023-11-21T02:10:56;99204.13;;;7.80;91.98
7668;BME280;3876;42.204;24.686;2023-11-21T02:13:23;99228.56;;;7.90;91.65
7668;BME280;3876;42.204;24.686;2023-11-21T02:15:50;99226.16;;;7.82;92.04
7668;BME280;3876;42.204;24.686;2023-11-21T02:18:19;99231.41;;;7.78;92.73
7668;BME280;3876;42.204;24.686;2023-11-21T02:20:47;99226.31;;;7.76;92.35
7668;BME280;3876;42.204;24.686;2023-11-21T02:23:15;99233.16;;;7.74;92.01
7668;BME280;3876;42.204;24.686;2023-11-21T02:25:43;99236.56;;;7.75;91.58
7668;BME280;3876;42.204;24.686;2023-11-21T02:28:10;99245.94;;;7.73;91.73
7668;BME280;3876;42.204;24.686;2023-11-21T02:30:38;99222.59;;;7.51;92.31
7668;BME280;3876;42.204;24.686;2023-11-21T02:33:05;99234.44;;;7.55;92.42
7668;BME280;3876;42.204;24.686;2023-11-21T02:35:32;99222.75;;;7.44;92.97
7668;BME280;3876;42.204;24.686;2023-11-21T02:38:00;99220.25;;;7.40;93.17
7668;BME280;3876;42.204;24.686;2023-11-21T02:40:28;99237.94;;;7.05;94.55
7668;BME280;3876;42.204;24.686;2023-11-21T02:42:55;99236.59;;;6.86;95.58
7668;BME280;3876;42.204;24.686;2023-11-21T02:45:24;99237.47;;;6.85;96.20
7668;BME280;3876;42.204;24.686;2023-11-21T02:47:51;99228.91;;;6.89;96.64
7668;BME280;3876;42.204;24.686;2023-11-21T02:50:18;99237.31;;;6.94;96.13
7668;BME280;3876;42.204;24.686;2023-11-21T02:52:45;99240.06;;;6.83;96.40
7668;BME280;3876;42.204;24.686;2023-11-21T02:55:12;99235.09;;;6.76;96.18
7668;BME280;3876;42.204;24.686;2023-11-21T02:57:40;99236.72;;;6.80;96.45
7668;BME280;3876;42.204;24.686;2023-11-21T03:00:08;99235.09;;;6.76;96.21
7668;BME280;3876;42.204;24.686;2023-11-21T03:02:38;99237.63;;;6.76;96.20
7668;BME280;3876;42.204;24.686;2023-11-21T03:05:06;99240.22;;;6.74;96.10
7668;BME280;3876;42.204;24.686;2023-11-21T03:07:34;99245.31;;;6.74;96.31
7668;BME280;3876;42.204;24.686;2023-11-21T03:10:01;99241.06;;;6.75;96.27
7668;BME280;3876;42.204;24.686;2023-11-21T03:12:28;99252.06;;;6.78;96.40
7668;BME280;3876;42.204;24.686;2023-11-21T03:14:56;99257.09;;;6.80;96.24
7668;BME280;3876;42.204;24.686;2023-11-21T03:17:23;99257.97;;;6.79;96.17
7668;BME280;3876;42.204;24.686;2023-11-21T03:19:50;99252.81;;;6.82;95.38
7668;BME280;3876;42.204;24.686;2023-11-21T03:22:17;99246.16;;;6.75;95.39
7668;BME280;3876;42.204;24.686;2023-11-21T03:24:44;99246.16;;;6.75;95.74
7668;BME280;3876;42.204;24.686;2023-11-21T03:27:11;99242.78;;;6.73;96.02
7668;BME280;3876;42.204;24.686;2023-11-21T03:29:38;99249.56;;;6.74;95.82
7668;BME280;3876;42.204;24.686;2023-11-21T03:32:07;99252.13;;;6.72;96.28
7668;BME280;3876;42.204;24.686;2023-11-21T03:34:34;99255.56;;;6.71;96.22
7668;BME280;3876;42.204;24.686;2023-11-21T03:37:01;99251.31;;;6.72;95.88
7668;BME280;3876;42.204;24.686;2023-11-21T03:39:27;99247.94;;;6.70;95.72
7668;BME280;3876;42.204;24.686;2023-11-21T03:41:54;99253.09;;;6.67;95.16
7668;BME280;3876;42.204;24.686;2023-11-21T03:44:21;99258.34;;;6.58;95.36
7668;BME280;3876;42.204;24.686;2023-11-21T03:46:48;99261.72;;;6.57;95.96
7668;BME280;3876;42.204;24.686;2023-11-21T03:49:16;99270.28;;;6.54;95.66
7668;BME280;3876;42.204;24.686;2023-11-21T03:51:43;99244.19;;;6.40;95.67
7668;BME280;3876;42.204;24.686;2023-11-21T03:54:09;99257.75;;;6.41;94.84
7668;BME280;3876;42.204;24.686;2023-11-21T03:56:36;99241.88;;;6.26;94.96
7668;BME280;3876;42.204;24.686;2023-11-21T03:59:03;99262.97;;;6.33;95.61
7668;BME280;3876;42.204;24.686;2023-11-21T04:01:29;99277.47;;;6.29;95.14
7668;BME280;3876;42.204;24.686;2023-11-21T04:03:56;99285.09;;;6.28;95.33
7668;BME280;3876;42.204;24.686;2023-11-21T04:06:24;99279.22;;;6.24;95.27
7668;BME280;3876;42.204;24.686;2023-11-21T04:08:51;99264.03;;;6.18;95.27
7668;BME280;3876;42.204;24.686;2023-11-21T04:11:18;99256.44;;;6.15;94.93
7668;BME280;3876;42.204;24.686;2023-11-21T04:13:44;99232.13;;;5.96;95.24
7668;BME280;3876;42.204;24.686;2023-11-21T04:16:12;99260.78;;;6.10;95.69
7668;BME280;3876;42.204;24.686;2023-11-21T04:18:39;99252.31;;;6.08;96.12
7668;BME280;3876;42.204;24.686;2023-11-21T04:21:06;99254.00;;;6.09;95.88
7668;BME280;3876;42.204;24.686;2023-11-21T04:23:35;99250.59;;;6.09;96.09
7668;BME280;3876;42.204;24.686;2023-11-21T04:26:02;99257.34;;;6.11;96.39
7668;BME280;3876;42.204;24.686;2023-11-21T04:28:28;99268.41;;;6.10;96.48
7668;BME280;3876;42.204;24.686;2023-11-21T04:30:56;99275.19;;;6.10;96.20
7668;BME280;3876;42.204;24.686;2023-11-21T04:33:22;99281.13;;;6.10;96.03
7668;BME280;3876;42.204;24.686;2023-11-21T04:35:50;99279.44;;;6.09;96.12
7668;BME280;3876;42.204;24.686;2023-11-21T04:38:17;99287.94;;;6.08;95.99
7668;BME280;3876;42.204;24.686;2023-11-21T04:40:45;99292.16;;;6.09;96.31
7668;BME280;3876;42.204;24.686;2023-11-21T04:43:12;99286.22;;;6.10;95.94
7668;BME280;3876;42.204;24.686;2023-11-21T04:45:39;99291.38;;;6.07;95.62
7668;BME280;3876;42.204;24.686;2023-11-21T04:48:07;99261.00;;;5.94;95.70
7668;BME280;3876;42.204;24.686;2023-11-21T04:50:34;99279.53;;;6.03;96.15
7668;BME280;3876;42.204;24.686;2023-11-21T04:53:01;99283.78;;;6.01;96.34
7668;BME280;3876;42.204;24.686;2023-11-21T04:55:28;99280.47;;;5.98;96.31
7668;BME280;3876;42.204;24.686;2023-11-21T04:57:56;99284.72;;;5.97;96.73
7668;BME280;3876;42.204;24.686;2023-11-21T05:00:22;99283.03;;;5.96;97.50
7668;BME280;3876;42.204;24.686;2023-11-21T05:02:49;99273.78;;;5.91;97.67
7668;BME280;3876;42.204;24.686;2023-11-21T05:05:17;99270.38;;;5.89;97.37
7668;BME280;3876;42.204;24.686;2023-11-21T05:07:44;99267.88;;;5.87;97.82
7668;BME280;3876;42.204;24.686;2023-11-21T05:10:11;99269.59;;;5.82;97.62
7668;BME280;3876;42.204;24.686;2023-11-21T05:12:40;99276.41;;;5.80;96.81
7668;BME280;3876;42.204;24.686;2023-11-21T05:15:09;99284.06;;;5.78;96.64
7668;BME280;3876;42.204;24.686;2023-11-21T05:17:38;99286.63;;;5.77;96.66
7668;BME280;3876;42.204;24.686;2023-11-21T05:20:08;99288.38;;;5.75;96.75
7668;BME280;3876;42.204;24.686;2023-11-21T05:22:35;99293.38;;;5.81;96.88
7668;BME280;3876;42.204;24.686;2023-11-21T05:25:02;99293.25;;;5.93;96.39
7668;BME280;3876;42.204;24.686;2023-11-21T05:27:29;99284.81;;;5.91;95.66
7668;BME280;3876;42.204;24.686;2023-11-21T05:29:56;99277.28;;;5.80;95.44
7668;BME280;3876;42.204;24.686;2023-11-21T05:32:24;99287.44;;;5.80;95.76
7668;BME280;3876;42.204;24.686;2023-11-21T05:34:52;99290.88;;;5.78;95.96
7668;BME280;3876;42.204;24.686;2023-11-21T05:37:18;99296.78;;;5.78;96.03
7668;BME280;3876;42.204;24.686;2023-11-21T05:39:45;99278.19;;;5.75;96.53
7668;BME280;3876;42.204;24.686;2023-11-21T05:42:12;99284.91;;;5.79;96.32
7668;BME280;3876;42.204;24.686;2023-11-21T05:44:42;99290.88;;;5.78;96.77
7668;BME280;3876;42.204;24.686;2023-11-21T05:47:09;99290.97;;;5.70;97.28
7668;BME280;3876;42.204;24.686;2023-11-21T05:49:37;99281.56;;;5.75;97.56
7668;BME280;3876;42.204;24.686;2023-11-21T05:52:05;99281.56;;;5.77;97.48
7668;BME280;3876;42.204;24.686;2023-11-21T05:54:31;99291.69;;;5.80;97.58
7668;BME280;3876;42.204;24.686;2023-11-21T05:56:59;99291.69;;;5.80;98.03
7668;BME280;3876;42.204;24.686;2023-11-21T05:59:27;99293.38;;;5.81;98.20
7668;BME280;3876;42.204;24.686;2023-11-21T06:01:53;99290.03;;;5.76;98.11
7668;BME280;3876;42.204;24.686;2023-11-21T06:04:21;99280.03;;;5.64;98.34
7668;BME280;3876;42.204;24.686;2023-11-21T06:06:52;99298.56;;;5.72;98.63
7668;BME280;3876;42.204;24.686;2023-11-21T06:09:19;99295.13;;;5.76;99.11
7668;BME280;3876;42.204;24.686;2023-11-21T06:11:46;99283.28;;;5.75;98.99
7668;BME280;3876;42.204;24.686;2023-11-21T06:14:12;99288.28;;;5.81;99.46
7668;BME280;3876;42.204;24.686;2023-11-21T06:16:43;99296.63;;;5.92;100.00
7668;BME280;3876;42.204;24.686;2023-11-21T06:19:10;99299.91;;;6.03;99.84
7668;BME280;3876;42.204;24.686;2023-11-21T06:21:37;99312.53;;;6.08;100.00
7668;BME280;3876;42.204;24.686;2023-11-21T06:24:05;99291.38;;;6.04;99.96
7668;BME280;3876;42.204;24.686;2023-11-21T06:26:32;99298.13;;;6.08;100.00
7668;BME280;3876;42.204;24.686;2023-11-21T06:28:59;99296.31;;;6.16;100.00
7668;BME280;3876;42.204;24.686;2023-11-21T06:31:26;99293.59;;;6.27;100.00
7668;BME280;3876;42.204;24.686;2023-11-21T06:33:52;99293.59;;;6.30;100.00
7668;BME280;3876;42.204;24.686;2023-11-21T06:36:19;99296.03;;;6.34;100.00
7668;BME280;3876;42.204;24.686;2023-11-21T06:38:46;99304.47;;;6.40;100.00
7668;BME280;3876;42.204;24.686;2023-11-21T06:41:14;99310.38;;;6.42;100.00
7668;BME280;3876;42.204;24.686;2023-11-21T06:43:41;99285.72;;;6.44;100.00
7668;BME280;3876;42.204;24.686;2023-11-21T06:46:11;99300.78;;;6.59;100.00
7668;BME280;3876;42.204;24.686;2023-11-21T06:48:40;99302.34;;;6.66;100.00
7668;BME280;3876;42.204;24.686;2023-11-21T06:51:07;99293.78;;;6.71;100.00
7668;BME280;3876;42.204;24.686;2023-11-21T06:53:33;99288.69;;;6.71;100.00
7668;BME280;3876;42.204;24.686;2023-11-21T06:56:00;99295.25;;;6.83;100.00
7668;BME280;3876;42.204;24.686;2023-11-21T06:58:28;99295.19;;;6.88;100.00
7668;BME280;3876;42.204;24.686;2023-11-21T07:00:55;99296.78;;;6.93;100.00
7668;BME280;3876;42.204;24.686;2023-11-21T07:03:23;99300.09;;;6.98;100.00
7668;BME280;3876;42.204;24.686;2023-11-21T07:05:51;99306.75;;;7.05;100.00
7668;BME280;3876;42.204;24.686;2023-11-21T07:08:18;99304.88;;;7.16;100.00
7668;BME280;3876;42.204;24.686;2023-11-21T07:10:44;99303.06;;;7.21;100.00
7668;BME280;3876;42.204;24.686;2023-11-21T07:13:12;99305.50;;;7.27;100.00
7668;BME280;3876;42.204;24.686;2023-11-21T07:15:40;99308.84;;;7.31;100.00
7668;BME280;3876;42.204;24.686;2023-11-21T07:18:07;99307.84;;;7.39;100.00
7668;BME280;3876;42.204;24.686;2023-11-21T07:20:34;99304.28;;;7.47;100.00
7668;BME280;3876;42.204;24.686;2023-11-21T07:23:01;99307.50;;;7.58;100.00
7668;BME280;3876;42.204;24.686;2023-11-21T07:25:29;99298.06;;;7.61;100.00
7668;BME280;3876;42.204;24.686;2023-11-21T07:27:57;99292.06;;;7.64;100.00
7668;BME280;3876;42.204;24.686;2023-11-21T07:30:23;99292.75;;;7.72;100.00
7668;BME280;3876;42.204;24.686;2023-11-21T07:32:51;99293.41;;;7.81;100.00
7668;BME280;3876;42.204;24.686;2023-11-21T07:35:18;99293.09;;;7.95;100.00
7668;BME280;3876;42.204;24.686;2023-11-21T07:37:45;99266.06;;;7.88;100.00
7668;BME280;3876;42.204;24.686;2023-11-21T07:40:13;99299.38;;;8.20;100.00
7668;BME280;3876;42.204;24.686;2023-11-21T07:42:39;99302.47;;;8.34;100.00
7668;BME280;3876;42.204;24.686;2023-11-21T07:45:08;99303.88;;;8.48;100.00
7668;BME280;3876;42.204;24.686;2023-11-21T07:47:35;99311.31;;;8.57;100.00
7668;BME280;3876;42.204;24.686;2023-11-21T07:50:04;99310.97;;;8.72;100.00
7668;BME280;3876;42.204;24.686;2023-11-21T07:52:32;99315.72;;;8.85;99.16
7668;BME280;3876;42.204;24.686;2023-11-21T07:54:59;99310.25;;;9.01;98.80
7668;BME280;3876;42.204;24.686;2023-11-21T07:57:27;99316.66;;;9.17;98.42
7668;BME280;3876;42.204;24.686;2023-11-21T07:59:53;99315.41;;;9.31;97.74
7668;BME280;3876;42.204;24.686;2023-11-21T08:02:20;99313.34;;;9.45;96.38
7668;BME280;3876;42.204;24.686;2023-11-21T08:04:47;99312.91;;;9.61;95.88
7668;BME280;3876;42.204;24.686;2023-11-21T08:07:17;99284.97;;;9.53;95.12
7668;BME280;3876;42.204;24.686;2023-11-21T08:09:43;99309.13;;;9.74;94.15
7668;BME280;3876;42.204;24.686;2023-11-21T08:12:12;99311.41;;;9.83;94.30
7668;BME280;3876;42.204;24.686;2023-11-21T08:14:40;99309.59;;;9.88;94.24
7668;BME280;3876;42.204;24.686;2023-11-21T08:17:06;99303.41;;;9.95;93.18
7668;BME280;3876;42.204;24.686;2023-11-21T08:19:35;99308.16;;;10.07;92.68
7668;BME280;3876;42.204;24.686;2023-11-21T08:22:02;99302.69;;;10.19;91.48
7668;BME280;3876;42.204;24.686;2023-11-21T08:24:30;99296.63;;;10.22;91.06
7668;BME280;3876;42.204;24.686;2023-11-21T08:26:57;99297.00;;;10.37;92.16
7668;BME280;3876;42.204;24.686;2023-11-21T08:29:24;99290.69;;;10.47;91.78
7668;BME280;3876;42.204;24.686;2023-11-21T08:31:50;99296.16;;;10.65;91.89
7668;BME280;3876;42.204;24.686;2023-11-21T08:34:17;99290.69;;;10.75;89.74
7668;BME280;3876;42.204;24.686;2023-11-21T08:36:44;99296.03;;;10.94;90.15
7668;BME280;3876;42.204;24.686;2023-11-21T08:39:10;99282.78;;;11.06;89.51
7668;BME280;3876;42.204;24.686;2023-11-21T08:41:40;99289.06;;;11.22;87.76
7668;BME280;3876;42.204;24.686;2023-11-21T08:44:06;99286.97;;;11.33;87.15
7668;BME280;3876;42.204;24.686;2023-11-21T08:46:34;99278.22;;;11.39;86.59
7668;BME280;3876;42.204;24.686;2023-11-21T08:49:02;99285.44;;;11.52;85.83
7668;BME280;3876;42.204;24.686;2023-11-21T08:51:29;99281.66;;;11.63;85.66
7668;BME280;3876;42.204;24.686;2023-11-21T08:53:55;99273.63;;;11.72;85.65
7668;BME280;3876;42.204;24.686;2023-11-21T08:56:25;99272.16;;;11.65;83.99
7668;BME280;3876;42.204;24.686;2023-11-21T08:58:53;99265.75;;;11.76;84.97
7668;BME280;3876;42.204;24.686;2023-11-21T09:01:19;99261.09;;;11.86;84.93
7668;BME280;3876;42.204;24.686;2023-11-21T09:03:46;99260.66;;;11.98;84.94
7668;BME280;3876;42.204;24.686;2023-11-21T09:06:15;99258.50;;;12.09;84.00
7668;BME280;3876;42.204;24.686;2023-11-21T09:08:42;99249.91;;;12.10;83.12
7668;BME280;3876;42.204;24.686;2023-11-21T09:11:11;99249.91;;;12.10;82.72
7668;BME280;3876;42.204;24.686;2023-11-21T09:13:38;99247.78;;;12.21;83.33
7668;BME280;3876;42.204;24.686;2023-11-21T09:16:08;99239.03;;;12.25;83.49
7668;BME280;3876;42.204;24.686;2023-11-21T09:18:36;99236.88;;;12.36;83.09
7668;BME280;3876;42.204;24.686;2023-11-21T09:21:05;99240.22;;;12.38;82.43
7668;BME280;3876;42.204;24.686;2023-11-21T09:23:36;99228.06;;;12.42;82.52
7668;BME280;3876;42.204;24.686;2023-11-21T09:26:05;99225.13;;;12.51;82.35
7668;BME280;3876;42.204;24.686;2023-11-21T09:28:32;99227.44;;;12.57;82.66
7668;BME280;3876;42.204;24.686;2023-11-21T09:31:04;99223.84;;;12.61;80.80
7668;BME280;3876;42.204;24.686;2023-11-21T09:33:36;99201.44;;;12.64;83.29
7668;BME280;3876;42.204;24.686;2023-11-21T09:36:04;99216.41;;;12.75;82.00
7668;BME280;3876;42.204;24.686;2023-11-21T09:38:31;99200.31;;;12.70;81.21
7668;BME280;3876;42.204;24.686;2023-11-21T09:40:59;99204.97;;;12.82;80.45
7668;BME280;3876;42.204;24.686;2023-11-21T09:43:28;99203.75;;;12.91;79.96
7668;BME280;3876;42.204;24.686;2023-11-21T09:45:59;99200.91;;;12.97;78.04
7668;BME280;3876;42.204;24.686;2023-11-21T09:48:28;99191.88;;;13.08;78.69
7668;BME280;3876;42.204;24.686;2023-11-21T09:50:57;99193.31;;;13.14;77.38
7668;BME280;3876;42.204;24.686;2023-11-21T09:53:27;99183.50;;;13.22;77.18
7668;BME280;3876;42.204;24.686;2023-11-21T09:55:58;99187.34;;;13.32;77.87
7668;BME280;3876;42.204;24.686;2023-11-21T09:58:28;99181.72;;;13.43;76.98
7668;BME280;3876;42.204;24.686;2023-11-21T10:00:57;99183.03;;;13.51;76.50
7668;BME280;3876;42.204;24.686;2023-11-21T10:03:26;99178.41;;;13.59;75.35
7668;BME280;3876;42.204;24.686;2023-11-21T10:05:53;99174.84;;;13.62;72.25
7668;BME280;3876;42.204;24.686;2023-11-21T10:08:27;99160.53;;;13.74;73.67
7668;BME280;3876;42.204;24.686;2023-11-21T10:10:54;99164.66;;;13.78;72.00
7668;BME280;3876;42.204;24.686;2023-11-21T10:13:21;99153.22;;;13.83;72.11
7668;BME280;3876;42.204;24.686;2023-11-21T10:15:50;99149.38;;;13.92;71.12
7668;BME280;3876;42.204;24.686;2023-11-21T10:18:18;99147.41;;;13.97;70.83
7668;BME280;3876;42.204;24.686;2023-11-21T10:20:45;99152.28;;;14.03;70.00
7668;BME280;3876;42.204;24.686;2023-11-21T10:23:18;99146.81;;;14.09;70.76
7668;BME280;3876;42.204;24.686;2023-11-21T10:25:47;99138.72;;;14.16;69.54
7668;BME280;3876;42.204;24.686;2023-11-21T10:28:15;99147.88;;;14.22;72.08
7668;BME280;3876;42.204;24.686;2023-11-21T10:30:41;99145.94;;;14.27;70.16
7668;BME280;3876;42.204;24.686;2023-11-21T10:33:09;99141.16;;;14.19;68.20
7668;BME280;3876;42.204;24.686;2023-11-21T10:35:42;99135.47;;;14.30;68.08
7668;BME280;3876;42.204;24.686;2023-11-21T10:38:12;99128.78;;;14.26;67.74
7668;BME280;3876;42.204;24.686;2023-11-21T10:40:40;99131.72;;;14.37;68.73
7668;BME280;3876;42.204;24.686;2023-11-21T10:43:09;99126.41;;;14.40;67.69
7668;BME280;3876;42.204;24.686;2023-11-21T10:45:37;99117.22;;;14.35;66.38
7668;BME280;3876;42.204;24.686;2023-11-21T10:48:06;99119.25;;;14.45;67.21
7668;BME280;3876;42.204;24.686;2023-11-21T10:50:34;99119.41;;;14.42;66.16
7668;BME280;3876;42.204;24.686;2023-11-21T10:53:02;99117.47;;;14.47;66.21
7668;BME280;3876;42.204;24.686;2023-11-21T10:55:30;99121.78;;;14.47;65.55
7668;BME280;3876;42.204;24.686;2023-11-21T10:57:59;99116.47;;;14.50;64.92
7668;BME280;3876;42.204;24.686;2023-11-21T11:00:28;99115.25;;;14.57;65.16
7668;BME280;3876;42.204;24.686;2023-11-21T11:02:55;99111.81;;;14.56;64.89
7668;BME280;3876;42.204;24.686;2023-11-21T11:05:25;99090.63;;;14.34;66.07
7668;BME280;3876;42.204;24.686;2023-11-21T11:07:58;99099.47;;;14.46;65.55
7668;BME280;3876;42.204;24.686;2023-11-21T11:10:27;99089.81;;;14.49;66.73
7668;BME280;3876;42.204;24.686;2023-11-21T11:12:55;99091.88;;;14.60;66.56
7668;BME280;3876;42.204;24.686;2023-11-21T11:15:23;99055.25;;;14.36;65.63
7668;BME280;3876;42.204;24.686;2023-11-21T11:17:51;99074.34;;;14.49;65.15
7668;BME280;3876;42.204;24.686;2023-11-21T11:20:23;99055.41;;;14.33;66.09
7668;BME280;3876;42.204;24.686;2023-11-21T11:22:57;99067.53;;;14.48;66.08
7668;BME280;3876;42.204;24.686;2023-11-21T11:25:35;99052.53;;;14.39;65.48
7668;BME280;3876;42.204;24.686;2023-11-21T11:28:07;99030.38;;;14.18;65.36
7668;BME280;3876;42.204;24.686;2023-11-21T11:30:44;99020.22;;;14.15;66.52
7668;BME280;3876;42.204;24.686;2023-11-21T11:33:23;99005.72;;;14.12;66.37
7668;BME280;3876;42.204;24.686;2023-11-21T11:35:56;98987.72;;;13.95;66.99
7668;BME280;3876;42.204;24.686;2023-11-21T11:38:31;98980.31;;;13.89;67.46
7668;BME280;3876;42.204;24.686;2023-11-21T11:41:02;98966.13;;;13.81;67.29
7668;BME280;3876;42.204;24.686;2023-11-21T11:43:30;98990.09;;;13.83;68.27
7668;BME280;3876;42.204;24.686;2023-11-21T11:45:58;99000.41;;;13.83;68.27
7668;BME280;3876;42.204;24.686;2023-11-21T11:48:26;99008.13;;;13.83;68.39
7668;BME280;3876;42.204;24.686;2023-11-21T11:51:03;98995.38;;;13.80;68.20
7668;BME280;3876;42.204;24.686;2023-11-21T11:53:35;98983.09;;;13.85;68.37
7668;BME280;3876;42.204;24.686;2023-11-21T11:56:22;98977.03;;;13.68;68.63
7668;BME280;3876;42.204;24.686;2023-11-21T11:58:51;98961.44;;;13.72;68.55
7668;BME280;3876;42.204;24.686;2023-11-21T12:01:18;98960.00;;;13.66;69.01
7668;BME280;3876;42.204;24.686;2023-11-21T12:04:24;98964.31;;;13.65;69.43
7668;BME280;3876;42.204;24.686;2023-11-21T12:06:57;98975.38;;;13.67;70.35
7668;BME280;3876;42.204;24.686;2023-11-21T12:09:26;98968.41;;;13.70;70.38
7668;BME280;3876;42.204;24.686;2023-11-21T12:11:53;98974.25;;;13.73;69.40
7668;BME280;3876;42.204;24.686;2023-11-21T12:14:22;98989.94;;;13.68;69.59
7668;BME280;3876;42.204;24.686;2023-11-21T12:16:49;98970.75;;;13.74;69.80
7668;BME280;3876;42.204;24.686;2023-11-21T12:19:18;98971.22;;;13.82;69.85
7668;BME280;3876;42.204;24.686;2023-11-21T12:21:46;98964.22;;;13.84;69.40
7668;BME280;3876;42.204;24.686;2023-11-21T12:24:14;98975.81;;;13.93;69.54
7668;BME280;3876;42.204;24.686;2023-11-21T12:26:42;98986.63;;;13.99;69.05
7668;BME280;3876;42.204;24.686;2023-11-21T12:29:09;98995.06;;;14.03;69.23
7668;BME280;3876;42.204;24.686;2023-11-21T12:31:36;98992.94;;;14.11;69.03
7668;BME280;3876;42.204;24.686;2023-11-21T12:34:03;98973.22;;;13.93;68.54
7668;BME280;3876;42.204;24.686;2023-11-21T12:36:34;98970.50;;;13.96;68.48
7668;BME280;3876;42.204;24.686;2023-11-21T12:39:02;98963.84;;;13.92;69.09
7668;BME280;3876;42.204;24.686;2023-11-21T12:41:29;98966.13;;;13.98;68.95
7668;BME280;3876;42.204;24.686;2023-11-21T12:43:56;98970.38;;;13.99;68.53
7668;BME280;3876;42.204;24.686;2023-11-21T12:46:23;98967.47;;;14.05;68.27
7668;BME280;3876;42.204;24.686;2023-11-21T12:48:54;98954.13;;;14.14;68.63
7668;BME280;3876;42.204;24.686;2023-11-21T12:51:22;98949.13;;;14.11;68.70
7668;BME280;3876;42.204;24.686;2023-11-21T12:53:50;98943.03;;;14.12;69.21
7668;BME280;3876;42.204;24.686;2023-11-21T12:56:18;98950.91;;;14.09;69.40
7668;BME280;3876;42.204;24.686;2023-11-21T12:58:48;98949.59;;;14.02;68.54
7668;BME280;3876;42.204;24.686;2023-11-21T13:01:16;98952.16;;;14.02;68.86
7668;BME280;3876;42.204;24.686;2023-11-21T13:03:47;98961.53;;;14.03;68.68
7668;BME280;3876;42.204;24.686;2023-11-21T13:06:17;98959.75;;;14.05;68.33
7668;BME280;3876;42.204;24.686;2023-11-21T13:08:45;98952.75;;;14.07;67.96
7668;BME280;3876;42.204;24.686;2023-11-21T13:11:13;98956.69;;;14.14;68.16
7668;BME280;3876;42.204;24.686;2023-11-21T13:13:41;98936.56;;;14.05;68.38
7668;BME280;3876;42.204;24.686;2023-11-21T13:16:09;98944.47;;;14.17;68.45
7668;BME280;3876;42.204;24.686;2023-11-21T13:18:36;98956.22;;;14.23;68.16
7668;BME280;3876;42.204;24.686;2023-11-21T13:21:04;98952.72;;;14.24;67.95